Time;durP1;ratioP1;P1;durP2;ratioP2;P2;SDS_P1;SDS_P2;PMS_P1;PMS_P2;Temp;Humidity;BMP_temperature;BMP_pressure;BME280_temperature;BME280_humidity;BME280_pressure;Samples;Min_cycle;Max_cycle;Signal;HPM_P1;HPM_P2
2022/06/18 00:00:29;;;;;;;12.25;6.38;;;25.20;99.90;;;25.54;53.78;101620.47;5115173;28;20393;-61
2022/06/18 00:02:57;;;;;;;9.88;5.93;;;25.20;99.90;;;25.73;53.81;101637.47;5115226;28;20048;-61
2022/06/18 00:05:26;;;;;;;9.60;6.10;;;25.20;99.90;;;25.75;53.53;101638.25;5114793;28;20051;-61
2022/06/18 00:07:56;;;;;;;8.90;6.00;;;25.20;99.90;;;25.74;53.63;101633.81;5114816;28;20430;-61
2022/06/18 00:10:30;;;;;;;;;;;25.20;99.90;;;25.73;53.57;101641.06;5115983;28;20043;-61
2022/06/18 00:16:04;;;;;;;10.20;5.82;;;25.20;99.90;;;25.67;53.88;101641.41;5115872;28;20077;-60
2022/06/18 00:18:32;;;;;;;16.00;6.15;;;25.10;99.90;;;25.67;54.04;101637.81;5116045;28;20062;-61
2022/06/18 00:21:02;;;;;;;11.60;6.25;;;25.10;99.90;;;25.67;53.98;101633.25;5115737;28;20070;-61
2022/06/18 00:23:30;;;;;;;14.18;6.43;;;25.10;99.90;;;25.64;54.21;101629.84;5116291;28;20134;-61
2022/06/18 00:26:00;;;;;;;10.48;6.20;;;25.10;99.90;;;25.57;54.04;101629.28;5115561;28;20039;-61
2022/06/18 00:28:32;;;;;;;13.40;6.10;;;25.10;99.90;;;25.60;54.19;101629.16;5115580;28;20466;-61
2022/06/18 00:31:00;;;;;;;11.98;6.07;;;25.00;99.90;;;25.62;54.26;101639.91;5115561;28;20489;-61
2022/06/18 00:33:29;;;;;;;12.05;6.40;;;25.00;99.90;;;25.60;54.29;101634.56;5115751;28;20049;-61
2022/06/18 00:36:03;;;;;;;12.55;5.90;;;25.10;99.90;;;25.60;54.36;101639.09;5115740;28;20067;-61
2022/06/18 00:38:36;;;;;;;13.65;6.00;;;25.10;99.90;;;25.60;54.18;101641.81;5097512;28;20139;-61
2022/06/18 00:41:08;;;;;;;10.52;6.00;;;25.00;99.90;;;25.50;54.38;101627.00;5097389;28;20052;-60
2022/06/18 00:43:42;;;;;;;12.93;6.70;;;25.00;99.90;;;25.53;54.69;101618.72;5096059;28;20047;-61
2022/06/18 00:46:17;;;;;;;12.93;6.68;;;25.00;99.90;;;25.51;54.78;101621.50;5095885;28;20046;-61
2022/06/18 00:48:55;;;;;;;9.40;6.05;;;25.00;99.90;;;25.46;54.71;101618.19;5114384;28;20046;-61
2022/06/18 00:51:27;;;;;;;17.08;7.60;;;25.00;99.90;;;25.43;55.14;101621.06;5114141;28;20142;-61
2022/06/18 00:54:02;;;;;;;9.60;6.05;;;25.00;99.90;;;25.44;55.26;101621.91;5114237;28;20058;-60
2022/06/18 00:56:58;;;;;;;11.05;6.50;;;24.90;99.90;;;25.41;55.51;101619.38;5114510;28;20084;-61
2022/06/18 00:59:34;;;;;;;12.73;6.63;;;24.80;99.90;;;25.26;55.57;101606.63;5114221;28;20043;-60
2022/06/18 01:02:04;;;;;;;13.65;6.60;;;24.80;99.90;;;25.33;55.56;101619.75;5113710;28;20054;-60
2022/06/18 01:04:35;;;;;;;13.82;6.68;;;24.80;99.90;;;25.28;56.08;101624.53;5113951;28;20048;-60
2022/06/18 01:07:16;;;;;;;13.00;7.07;;;24.80;99.90;;;25.24;56.86;101620.22;5095578;28;20048;-61
2022/06/18 01:09:48;;;;;;;9.95;6.70;;;24.60;99.90;;;25.29;58.15;101631.72;5113661;28;20058;-61
2022/06/18 01:12:19;;;;;;;12.05;7.30;;;24.70;99.90;;;25.26;58.59;101622.88;5113601;28;20442;-61
2022/06/18 01:14:53;;;;;;;9.02;6.18;;;24.70;99.90;;;25.24;58.68;101622.09;5113737;28;20063;-61
2022/06/18 01:17:22;;;;;;;12.98;7.22;;;24.60;99.90;;;25.26;57.99;101623.75;5095136;28;20131;-61
2022/06/18 01:19:52;;;;;;;12.82;6.55;;;24.60;99.90;;;25.28;57.03;101613.69;5113534;28;20036;-60
2022/06/18 01:22:35;;;;;;;14.65;7.05;;;24.60;99.90;;;25.19;57.21;101608.78;5094443;28;20075;-61
2022/06/18 01:25:08;;;;;;;14.98;6.53;;;24.70;99.90;;;25.30;56.66;101610.94;5095327;28;20055;-60
2022/06/18 01:27:41;;;;;;;12.60;6.30;;;24.70;99.90;;;25.33;56.96;101608.94;5095469;28;20048;-61
2022/06/18 01:30:22;;;;;;;16.67;6.70;;;24.70;99.90;;;25.25;57.68;101610.28;5095596;28;20062;-60
2022/06/18 01:32:55;;;;;;;11.90;6.63;;;24.60;99.90;;;25.20;57.92;101615.09;5095672;28;20485;-61
2022/06/18 01:35:27;;;;;;;17.85;6.55;;;24.60;99.90;;;25.19;58.50;101602.47;5114155;28;20439;-61
2022/06/18 01:38:09;;;;;;;14.18;6.13;;;24.60;99.90;;;25.21;57.81;101596.03;5095468;28;20139;-61
2022/06/18 01:40:46;;;;;;;20.80;6.43;;;24.60;99.90;;;25.22;57.89;101610.47;5095179;28;20093;-61
2022/06/18 01:43:19;;;;;;;18.00;6.80;;;24.60;99.90;;;25.17;58.04;101604.38;5113506;28;20092;-61
2022/06/18 01:45:54;;;;;;;15.07;6.85;;;24.60;99.90;;;25.14;59.03;101605.47;5094867;28;20047;-61
2022/06/18 01:48:29;;;;;;;15.45;7.05;;;24.60;99.90;;;25.03;60.00;101603.28;5094956;28;20039;-61
2022/06/18 01:51:05;;;;;;;19.70;7.22;;;24.40;99.90;;;24.89;59.72;101586.03;5095147;28;20044;-60
2022/06/18 01:53:42;;;;;;;15.32;7.30;;;24.50;99.90;;;24.98;59.95;101607.19;5095261;28;20077;-60
2022/06/18 01:56:18;;;;;;;15.02;6.95;;;24.40;99.90;;;24.80;60.00;101589.19;5113466;28;20043;-61
2022/06/18 01:58:51;;;;;;;20.42;7.18;;;24.40;99.90;;;24.72;60.89;101596.84;5095613;28;20048;-60
2022/06/18 02:01:34;;;;;;;14.95;7.35;;;24.30;99.90;;;24.64;61.87;101609.88;5095408;28;20051;-60
2022/06/18 02:04:04;;;;;;;13.65;7.68;;;24.10;99.90;;;24.55;61.44;101604.91;5094830;28;20046;-60
2022/06/18 02:06:36;;;;;;;19.40;7.20;;;24.00;99.90;;;24.50;61.16;101598.84;5094717;28;20043;-60
2022/06/18 02:09:08;;;;;;;17.42;7.40;;;23.90;99.90;;;24.30;62.32;101607.97;5094702;28;20108;-61
2022/06/18 02:11:38;;;;;;;16.85;7.57;;;23.80;99.90;;;24.00;62.38;101612.13;5112982;28;20397;-61
2022/06/18 02:14:15;;;;;;;15.00;8.45;;;23.60;99.90;;;23.81;62.07;101587.78;5094609;28;20054;-60
2022/06/18 02:16:47;;;;;;;14.18;7.25;;;23.40;99.90;;;23.88;62.30;101610.91;5112454;28;20386;-61
2022/06/18 02:19:17;;;;;;;14.98;7.68;;;23.30;99.90;;;23.72;62.80;101607.16;5094509;28;20071;-60
2022/06/18 02:21:51;;;;;;;16.75;7.40;;;23.20;99.90;;;23.59;63.37;101605.97;5112868;28;20047;-60
2022/06/18 02:24:20;;;;;;;19.70;8.30;;;23.10;99.90;;;23.46;63.72;101598.50;5094551;28;20056;-60
2022/06/18 02:26:50;;;;;;;19.88;8.10;;;23.00;99.90;;;23.20;64.59;101610.44;5112670;28;20128;-60
2022/06/18 02:29:23;;;;;;;21.95;8.85;;;22.80;99.90;;;23.22;64.86;101608.56;5112729;28;20409;-60
2022/06/18 02:31:52;;;;;;;19.00;8.70;;;22.70;99.90;;;23.33;64.58;101608.97;5111996;28;20554;-61
2022/06/18 02:34:25;;;;;;;21.30;7.95;;;22.80;99.90;;;23.34;64.49;101604.47;5094363;28;20058;-60
2022/06/18 02:36:56;;;;;;;20.35;8.73;;;22.80;99.90;;;23.13;65.59;101599.03;5094363;28;20353;-60
2022/06/18 02:39:37;;;;;;;22.38;8.50;;;22.60;99.90;;;22.97;66.14;101583.59;5094261;28;20546;-60
2022/06/18 02:42:11;;;;;;;18.45;8.18;;;22.60;99.90;;;22.87;66.61;101599.31;5112380;28;20036;-60
2022/06/18 02:44:41;;;;;;;20.30;9.20;;;22.50;99.90;;;22.85;67.49;101603.03;5112574;28;20040;-61
2022/06/18 02:47:11;;;;;;;22.48;9.50;;;22.40;99.90;;;22.61;67.74;101586.06;5094090;28;20138;-60
2022/06/18 02:49:45;;;;;;;17.15;9.50;;;22.30;99.90;;;22.59;68.78;101603.28;5112456;28;20472;-60
2022/06/18 02:52:14;;;;;;;18.58;9.20;;;22.10;99.90;;;22.48;69.19;101608.19;5094047;28;20062;-60
2022/06/18 02:54:43;;;;;;;21.88;9.70;;;22.00;99.90;;;22.38;69.40;101584.31;5094032;28;20051;-60
2022/06/18 02:57:27;;;;;;;24.55;10.18;;;22.00;99.90;;;22.29;70.79;101611.66;5093907;28;20063;-60
2022/06/18 02:59:55;;;;;;;23.35;10.25;;;21.80;99.90;;;22.31;70.37;101603.50;5094034;28;20446;-60
2022/06/18 03:02:24;;;;;;;22.10;10.23;;;21.70;99.90;;;22.31;70.59;101611.59;5094398;28;20058;-60
2022/06/18 03:04:52;;;;;;;22.08;9.25;;;21.70;99.90;;;22.23;70.85;101601.13;5095251;28;20089;-60
2022/06/18 03:07:21;;;;;;;23.42;10.65;;;21.70;99.90;;;22.26;71.48;101603.69;5095044;28;20495;-60
2022/06/18 03:12:38;;;;;;;22.98;9.98;;;21.80;99.90;;;22.56;70.41;101615.03;5113482;28;20078;-60
2022/06/18 03:15:07;;;;;;;27.90;10.73;;;22.00;99.90;;;22.57;69.93;101606.00;5095092;28;20054;-60
2022/06/18 03:17:36;;;;;;;24.75;10.95;;;22.00;99.90;;;22.07;69.31;101499.38;5113017;28;20109;-60
2022/06/18 03:20:14;;;;;;;20.20;9.88;;;22.20;99.90;;;22.75;69.88;101609.75;5113339;28;20073;-60
2022/06/18 03:22:42;;;;;;;21.88;10.38;;;22.20;99.90;;;22.85;69.46;101612.00;5113355;28;20050;-61
2022/06/18 03:25:11;;;;;;;27.33;10.93;;;22.30;99.90;;;22.91;69.42;101609.03;5094984;28;20473;-60
2022/06/18 03:27:41;;;;;;;27.88;11.50;;;22.40;99.90;;;22.88;68.78;101608.31;5094872;28;20447;-60
2022/06/18 03:30:11;;;;;;;21.65;11.20;;;22.40;99.90;;;22.83;69.43;101603.09;5095023;28;20039;-60
2022/06/18 03:32:40;;;;;;;27.38;10.63;;;22.40;99.90;;;22.89;69.22;101613.63;5094986;28;20050;-60
2022/06/18 03:35:09;;;;;;;25.00;10.73;;;22.40;99.90;;;22.84;69.56;101601.28;5094909;28;20104;-60
2022/06/18 03:37:37;;;;;;;26.13;11.00;;;22.30;99.90;;;22.78;69.86;101598.84;5094842;28;20044;-60
2022/06/18 03:40:08;;;;;;;28.27;10.35;;;22.30;99.90;;;22.74;70.18;101606.19;5094857;28;20075;-60
2022/06/18 03:42:36;;;;;;;24.02;10.52;;;22.20;99.90;;;22.63;70.69;101600.38;5094938;28;20040;-60
2022/06/18 03:45:07;;;;;;;27.02;10.98;;;22.10;99.90;;;22.77;70.32;101611.44;5096941;28;20039;-61
2022/06/18 03:47:36;;;;;;;24.13;10.00;;;22.20;99.90;;;22.81;69.92;101614.88;5098374;28;20044;-60
2022/06/18 03:50:07;;;;;;;25.67;10.85;;;22.10;99.90;;;22.89;69.60;101618.13;5098356;28;20048;-61
2022/06/18 03:52:36;;;;;;;;;;;22.30;99.90;;;22.86;68.72;101612.91;5117128;28;20108;-60
2022/06/18 03:55:06;;;;;;;31.17;11.45;;;22.40;99.90;;;22.86;69.75;101616.44;5098264;28;20028;-60
2022/06/18 03:57:34;;;;;;;33.20;12.07;;;22.30;99.90;;;22.83;69.70;101611.19;5097975;28;20056;-60
2022/06/18 04:00:06;;;;;;;29.45;11.57;;;22.30;99.90;;;22.68;70.36;101619.94;5097874;28;20093;-60
2022/06/18 04:02:43;;;;;;;29.85;12.05;;;22.10;99.90;;;22.78;70.06;101615.03;5114939;28;20093;-60
2022/06/18 04:05:16;;;;;;;25.65;11.88;;;22.20;99.90;;;22.73;69.81;101592.75;5096778;28;20065;-61
2022/06/18 04:07:44;;;;;;;27.20;12.45;;;22.30;99.90;;;22.68;69.99;101592.09;5096316;28;20147;-61
2022/06/18 04:10:27;;;;;;;27.42;12.68;;;22.30;99.90;;;22.76;70.20;101615.09;5096630;28;20051;-60
2022/06/18 04:12:55;;;;;;;25.00;11.63;;;22.20;99.90;;;22.86;69.66;101615.59;5096669;28;20054;-60
2022/06/18 04:15:54;;;;;;;27.92;13.07;;;22.30;99.90;;;22.83;69.46;101619.28;5114979;28;20048;-60
2022/06/18 04:18:26;;;;;;;30.58;13.27;;;22.30;99.90;;;22.73;70.48;101611.63;5093035;28;20113;-60
2022/06/18 04:20:57;;;;;;;30.67;12.98;;;22.10;99.90;;;22.68;70.80;101610.97;5093274;28;20044;-60
2022/06/18 04:23:28;;;;;;;32.15;12.95;;;22.10;99.90;;;22.61;71.52;101617.56;5093203;28;20036;-61
2022/06/18 04:25:56;;;;;;;27.33;12.95;;;22.00;99.90;;;22.75;70.85;101620.53;5093119;28;20057;-60
2022/06/18 04:28:27;;;;;;;25.52;12.90;;;22.10;99.90;;;22.68;71.18;101610.97;5093253;28;20079;-60
2022/06/18 04:31:05;;;;;;;29.00;12.98;;;22.10;99.90;;;22.70;71.20;101614.47;5093197;28;20147;-60
2022/06/18 04:33:36;;;;;;;30.95;13.75;;;22.10;99.90;;;22.65;71.04;101614.66;5093224;28;20044;-60
2022/06/18 04:36:39;;;;;;;29.80;12.80;;;22.10;99.90;;;22.61;71.71;101617.56;5060085;28;20393;-60
2022/06/18 04:39:18;;;;;;;29.20;12.98;;;22.00;99.90;;;22.51;72.08;101619.75;5093245;28;20040;-60
2022/06/18 04:41:51;;;;;;;26.80;12.20;;;21.90;99.90;;;22.49;70.98;101574.91;5093620;28;20055;-60
2022/06/18 04:44:22;;;;;;;29.10;12.23;;;22.10;99.90;;;22.78;71.47;101618.63;5093211;28;20047;-61
2022/06/18 04:46:56;;;;;;;30.15;13.10;;;22.10;99.90;;;22.77;71.38;101608.75;5092857;28;20059;-61
2022/06/18 04:49:26;;;;;;;28.80;12.65;;;22.20;99.90;;;22.84;70.99;101609.38;5093124;28;20131;-60
2022/06/18 04:51:54;;;;;;;34.65;13.43;;;22.30;99.90;;;22.96;70.18;101614.22;5093735;28;20439;-60
2022/06/18 04:54:34;;;;;;;25.10;12.68;;;22.40;99.90;;;23.02;69.96;101620.25;5093696;28;20040;-60
2022/06/18 04:57:03;;;;;;;26.25;12.48;;;22.50;99.90;;;23.11;69.28;101619.81;5093564;28;20482;-60
2022/06/18 04:59:32;;;;;;;29.57;12.43;;;22.60;99.90;;;23.23;68.59;101619.28;5093595;28;20093;-60
2022/06/18 05:02:06;;;;;;;30.92;12.73;;;22.70;99.90;;;23.32;68.24;101612.66;5093530;28;20300;-60
2022/06/18 05:04:59;;;;;;;31.92;12.38;;;22.80;99.90;;;23.38;68.02;101612.38;5093560;28;20040;-60
2022/06/18 05:07:57;;;;;;;25.65;11.93;;;22.90;99.90;;;23.51;67.49;101618.06;5093361;28;20052;-60
2022/06/18 05:10:46;;;;;;;29.02;12.40;;;22.90;99.90;;;23.56;67.33;101619.63;5086782;28;20051;-60
2022/06/18 05:13:24;;;;;;;31.83;12.68;;;23.10;99.90;;;23.62;67.13;101618.44;5093380;28;20070;-61
2022/06/18 05:16:21;;;;;;;30.13;12.52;;;23.10;99.90;;;23.67;67.19;101629.94;5094172;28;20478;-60
2022/06/18 05:18:51;;;;;;;27.48;12.48;;;23.10;99.90;;;23.66;67.45;101630.88;5092999;28;20060;-61
2022/06/18 05:21:21;;;;;;;26.67;11.35;;;23.20;99.90;;;23.67;67.43;101627.25;5092342;28;20050;-61
2022/06/18 05:23:49;;;;;;;31.50;11.55;;;23.10;99.90;;;23.77;67.18;101629.41;5092094;28;20139;-61
2022/06/18 05:26:21;;;;;;;30.85;12.18;;;23.20;99.90;;;23.60;68.14;101628.44;5092026;28;20128;-60
2022/06/18 05:28:51;;;;;;;30.98;12.80;;;23.10;99.90;;;23.62;67.61;101613.03;5091806;28;20070;-61
2022/06/18 05:31:20;;;;;;;27.75;10.90;;;23.10;99.90;;;23.76;67.07;101619.56;5091856;28;20522;-61
2022/06/18 05:33:50;;;;;;;21.58;10.65;;;23.20;99.90;;;23.82;67.12;101623.81;5091754;28;20044;-61
2022/06/18 05:36:20;;;;;;;34.50;12.33;;;23.30;99.90;;;23.90;66.97;101613.53;5091801;28;20048;-61
2022/06/18 05:38:54;;;;;;;27.38;12.98;;;23.30;99.90;;;23.92;66.40;101615.22;5091811;28;20136;-60
2022/06/18 05:41:23;;;;;;;34.20;12.60;;;23.30;99.90;;;24.00;66.39;101618.41;5091250;28;20047;-61
2022/06/18 05:43:51;;;;;;;26.45;11.65;;;23.40;99.90;;;23.99;66.64;101627.47;5092706;28;20108;-60
2022/06/18 05:46:20;;;;;;;30.65;12.82;;;23.50;99.90;;;23.96;66.36;101605.97;5091259;28;20142;-61
2022/06/18 05:48:49;;;;;;;33.72;12.25;;;23.50;99.90;;;23.95;66.14;101608.75;5091487;28;20469;-60
2022/06/18 05:51:18;;;;;;;25.77;11.55;;;23.60;99.90;;;24.23;65.69;101619.16;5091541;28;20048;-61
2022/06/18 05:53:48;;;;;;;27.42;11.27;;;23.70;99.90;;;24.25;65.61;101618.16;5091429;28;20101;-61
2022/06/18 05:56:36;;;;;;;27.23;11.75;;;23.70;99.90;;;24.37;65.78;101630.19;5092098;28;20045;-61
2022/06/18 05:59:25;;;;;;;26.92;12.93;;;23.80;99.90;;;24.13;65.41;101565.53;5092267;28;20052;-60
2022/06/18 06:01:56;;;;;;;24.77;11.82;;;24.00;99.90;;;24.52;64.85;101632.13;5091210;28;20531;-60
2022/06/18 06:04:28;;;;;;;29.17;11.63;;;24.00;99.90;;;24.63;64.74;101630.63;5092765;28;20048;-61
2022/06/18 06:06:59;;;;;;;24.48;11.82;;;24.10;99.90;;;24.68;64.67;101636.69;5090513;28;20044;-61
2022/06/18 06:12:15;;;;;;;32.55;12.30;;;24.20;99.90;;;24.69;65.42;101642.97;5091287;28;20051;-60
2022/06/18 06:14:44;;;;;;;23.38;11.73;;;24.20;99.90;;;24.60;65.61;101643.44;5091484;28;20139;-61
2022/06/18 06:17:16;;;;;;;24.75;12.20;;;24.10;99.90;;;24.39;66.10;101644.53;5091095;28;20078;-61
2022/06/18 06:19:45;;;;;;;29.48;12.48;;;23.90;99.90;;;24.64;65.82;101647.75;5092840;28;20046;-61
2022/06/18 06:22:15;;;;;;;37.85;13.77;;;24.00;99.90;;;24.32;65.95;101649.34;5092614;28;20082;-61
2022/06/18 06:24:43;;;;;;;30.38;12.27;;;23.80;99.90;;;24.56;66.61;101649.97;5092143;28;20048;-60
2022/06/18 06:27:12;;;;;;;28.02;12.45;;;23.90;99.90;;;24.77;65.15;101648.91;5092031;28;20032;-60
2022/06/18 06:29:40;;;;;;;25.70;12.55;;;24.20;99.90;;;24.93;64.54;101650.75;5090839;28;20140;-60
2022/06/18 06:32:09;;;;;;;24.70;11.70;;;24.30;99.90;;;24.83;65.34;101643.19;5091992;28;20060;-60
2022/06/18 06:34:37;;;;;;;28.55;12.57;;;24.30;99.90;;;24.63;65.74;101652.28;5091838;28;20442;-60
2022/06/18 06:37:05;;;;;;;24.77;12.02;;;24.30;99.90;;;24.79;65.39;101658.72;5092442;28;20044;-61
2022/06/18 06:39:35;;;;;;;24.25;12.18;;;24.30;99.90;;;24.67;66.12;101658.41;5092051;28;20067;-60
2022/06/18 06:42:04;;;;;;;27.70;11.97;;;24.20;99.90;;;24.45;66.60;101660.44;5092465;28;20062;-61
2022/06/18 06:44:36;;;;;;;27.35;10.88;;;24.00;99.90;;;24.63;66.42;101663.13;5090858;28;20040;-60
2022/06/18 06:47:04;;;;;;;23.60;11.18;;;24.10;99.90;;;24.84;65.30;101662.06;5091711;28;20131;-61
2022/06/18 06:49:33;;;;;;;26.13;11.07;;;24.30;99.90;;;24.98;64.42;101658.66;5092023;28;20400;-60
2022/06/18 06:52:01;;;;;;;27.23;10.18;;;24.40;99.90;;;25.00;64.68;101663.03;5091750;28;20040;-60
2022/06/18 06:54:29;;;;;;;22.08;9.52;;;24.50;99.90;;;25.08;64.35;101659.94;5091797;28;20035;-60
2022/06/18 06:59:46;;;;;;;21.17;9.18;;;24.80;99.90;;;25.46;61.93;101666.06;5092393;28;20143;-60
2022/06/18 07:02:17;;;;;;;22.98;9.18;;;25.00;99.90;;;25.44;61.39;101662.56;5091933;28;20044;-60
2022/06/18 07:04:46;;;;;;;21.90;10.07;;;25.00;99.90;;;25.47;61.56;101674.13;5091620;28;20044;-61
2022/06/18 07:07:15;;;;;;;15.55;8.35;;;25.00;99.90;;;25.32;61.14;101657.78;5091834;28;20044;-60
2022/06/18 07:09:45;;;;;;;18.38;8.73;;;25.00;99.90;;;25.31;61.42;101675.84;5091576;28;20050;-60
2022/06/18 07:12:15;;;;;;;17.40;8.98;;;24.80;99.90;;;25.58;60.54;101666.31;5091584;28;20123;-61
2022/06/18 07:14:43;;;;;;;21.23;8.47;;;25.00;99.90;;;25.47;60.51;101666.00;5091833;28;20048;-61
2022/06/18 07:17:19;;;;;;;21.88;7.82;;;25.00;99.90;;;25.48;59.23;101651.47;5095632;28;20066;-61
2022/06/18 07:19:48;;;;;;;22.42;8.15;;;25.10;99.90;;;25.31;60.32;101673.16;5115464;28;20055;-61
2022/06/18 07:22:16;;;;;;;15.20;8.15;;;24.80;99.90;;;25.62;60.43;101678.72;5115856;28;20046;-61
2022/06/18 07:24:45;;;;;;;22.17;8.18;;;25.10;99.90;;;25.85;59.75;101681.06;5115677;28;20043;-61
2022/06/18 07:27:14;;;;;;;18.27;7.95;;;25.30;99.90;;;25.89;59.02;101679.94;5115721;28;20365;-61
2022/06/18 07:29:43;;;;;;;20.85;8.30;;;25.50;99.90;;;26.16;59.45;101679.38;5115600;28;20399;-61
2022/06/18 07:32:16;;;;;;;17.80;7.72;;;25.70;99.90;;;26.39;58.78;101679.84;5115846;28;20119;-61
2022/06/18 07:34:45;;;;;;;19.63;7.43;;;25.90;99.90;;;26.57;57.30;101678.81;5097534;28;20370;-61
2022/06/18 07:37:13;;;;;;;15.77;8.10;;;26.10;99.90;;;26.68;56.86;101679.03;5115820;28;20046;-61
2022/06/18 07:39:42;;;;;;;17.60;7.38;;;26.20;99.90;;;26.82;56.66;101674.66;5115501;28;20059;-61
2022/06/18 07:42:14;;;;;;;15.20;7.32;;;26.40;99.90;;;26.95;55.93;101682.00;5097524;28;20044;-61
2022/06/18 07:44:42;;;;;;;17.85;6.47;;;26.50;99.90;;;27.02;55.83;101677.09;5115452;28;20044;-61
2022/06/18 07:47:15;;;;;;;16.05;7.55;;;26.60;99.90;;;27.19;55.03;101679.66;5115755;28;20092;-61
2022/06/18 07:49:45;;;;;;;12.75;7.22;;;26.70;99.90;;;27.10;55.59;101655.78;5115632;28;20107;-61
2022/06/18 07:52:15;;;;;;;15.50;7.07;;;26.80;99.90;;;27.30;55.14;101685.31;5115579;28;20139;-61
2022/06/18 07:54:45;;;;;;;15.95;6.80;;;26.90;99.90;;;27.40;54.71;101690.16;5115379;28;20039;-61
2022/06/18 07:57:21;;;;;;;11.93;6.13;;;26.90;99.90;;;27.37;53.70;101676.72;5115704;28;20036;-61
2022/06/18 07:59:50;;;;;;;14.05;6.50;;;27.00;99.90;;;27.42;54.10;101665.56;5115754;28;20039;-61
2022/06/18 08:02:18;;;;;;;12.60;6.35;;;27.10;99.90;;;27.72;53.66;101690.00;5116529;28;20050;-61
2022/06/18 08:04:46;;;;;;;14.95;6.72;;;27.30;99.90;;;27.88;52.61;101688.03;5115551;28;20086;-61
2022/06/18 08:07:15;;;;;;;12.00;6.05;;;27.40;99.90;;;27.47;52.82;101682.47;5115186;28;20036;-61
2022/06/18 08:09:44;;;;;;;12.07;5.93;;;27.10;99.90;;;27.78;53.28;101679.59;5115135;28;20485;-61
2022/06/18 08:12:12;;;;;;;14.63;6.07;;;27.30;99.90;;;27.92;52.62;101676.88;5115096;28;20043;-61
2022/06/18 08:14:42;;;;;;;12.80;6.00;;;27.40;99.90;;;28.06;52.20;101676.03;5114926;28;20046;-61
2022/06/18 08:17:10;;;;;;;11.95;5.68;;;27.60;99.90;;;28.08;52.47;101666.81;5114692;28;20062;-61
2022/06/18 08:19:40;;;;;;;16.08;6.47;;;27.70;99.90;;;28.23;51.68;101676.69;5114784;28;20044;-61
2022/06/18 08:22:08;;;;;;;15.37;6.10;;;27.80;99.90;;;28.33;51.57;101666.09;5114713;28;20038;-61
2022/06/18 08:24:36;;;;;;;13.90;5.90;;;27.90;99.90;;;28.48;51.34;101662.34;5114863;28;20282;-61
2022/06/18 08:27:05;;;;;;;14.48;5.80;;;28.10;99.90;;;28.57;51.04;101658.19;5114615;28;20545;-61
2022/06/18 08:29:34;;;;;;;14.60;6.45;;;28.20;99.90;;;28.71;49.88;101672.59;5114013;28;20126;-61
2022/06/18 08:32:05;;;;;;;13.52;5.88;;;28.30;99.90;;;28.85;49.54;101675.28;5114610;28;20063;-61
2022/06/18 08:34:33;;;;;;;;;;;28.40;99.90;;;28.81;49.47;101670.13;5115134;28;20043;-61
2022/06/18 08:37:04;;;;;;;13.50;5.10;;;28.60;99.90;;;28.90;49.19;101673.09;5114459;28;19995;-61
2022/06/18 08:39:34;;;;;;;16.27;6.30;;;28.60;99.90;;;29.03;49.41;101667.72;5114730;28;20128;-61
2022/06/18 08:42:19;;;;;;;12.73;5.72;;;28.60;99.90;;;29.12;48.82;101662.50;5114321;28;20131;-61
2022/06/18 08:45:11;;;;;;;10.23;5.07;;;28.70;99.90;;;29.20;49.30;101660.16;5114256;28;20131;-61
2022/06/18 08:48:30;;;;;;;12.23;4.90;;;28.80;99.90;;;29.32;47.70;101659.31;5114375;28;20067;-61
2022/06/18 08:51:13;;;;;;;12.05;5.70;;;29.00;99.90;;;29.28;47.62;101649.59;5096056;28;20496;-61
2022/06/18 08:54:24;;;;;;;11.80;5.10;;;29.00;99.90;;;28.99;48.52;101639.81;5114369;28;20051;-61
2022/06/18 08:57:00;;;;;;;12.38;5.38;;;28.70;99.90;;;28.62;48.00;101640.56;5093780;28;20134;-61
2022/06/18 08:59:45;;;;;;;14.50;5.70;;;28.30;99.90;;;28.79;47.65;101647.56;5113866;28;20147;-61
2022/06/18 09:02:24;;;;;;;12.93;5.18;;;28.30;99.90;;;28.96;48.46;101652.78;5114233;28;20035;-60
2022/06/18 09:05:15;;;;;;;14.05;4.85;;;28.50;99.90;;;29.02;48.93;101655.94;5114303;28;20480;-61
2022/06/18 09:08:43;;;;;;;12.10;4.93;;;28.60;99.90;;;29.02;47.05;101661.38;5113739;28;20086;-60
2022/06/18 09:11:38;;;;;;;15.57;5.45;;;28.60;99.90;;;28.53;49.45;101646.59;5066011;28;20174;-60
2022/06/18 09:14:14;;;;;;;11.60;5.25;;;28.10;99.90;;;28.82;50.03;101647.38;5113715;28;20044;-60
2022/06/18 09:16:49;;;;;;;11.57;5.10;;;28.30;99.90;;;28.96;50.33;101645.44;5114038;28;20036;-60
2022/06/18 09:19:21;;;;;;;12.25;5.13;;;28.50;99.90;;;29.06;49.89;101652.03;5113483;28;20056;-60
2022/06/18 09:21:55;;;;;;;13.52;5.22;;;28.70;99.90;;;29.25;50.47;101652.53;5113414;28;20044;-60
2022/06/18 09:24:30;;;;;;;10.23;4.68;;;28.80;99.90;;;29.23;51.12;101654.47;5112922;28;20051;-60
2022/06/18 09:27:05;;;;;;;11.77;5.00;;;28.80;99.90;;;29.06;51.83;101652.03;5113225;28;20075;-60
2022/06/18 09:29:41;;;;;;;15.20;4.70;;;28.70;99.90;;;29.29;51.65;101654.06;5112933;28;20093;-60
2022/06/18 09:32:17;;;;;;;8.93;4.38;;;28.90;99.90;;;29.17;50.89;101608.56;5113558;28;20096;-60
2022/06/18 09:34:51;;;;;;;8.88;4.35;;;29.10;99.90;;;29.57;50.90;101660.28;5113119;28;20050;-61
2022/06/18 09:37:26;;;;;;;8.68;4.35;;;29.20;99.90;;;29.42;50.30;101612.31;5113058;28;20382;-60
2022/06/18 09:39:58;;;;;;;6.95;4.03;;;29.30;99.90;;;29.89;49.69;101667.06;5113060;28;20047;-60
2022/06/18 09:42:35;;;;;;;7.10;3.75;;;29.50;99.90;;;30.00;49.76;101665.31;5093671;28;20116;-60
2022/06/18 09:45:09;;;;;;;8.50;3.78;;;29.70;99.90;;;30.18;49.29;101661.25;5112833;28;20119;-60
2022/06/18 09:47:41;;;;;;;9.07;3.60;;;29.80;99.90;;;30.10;47.53;101657.34;5112667;28;20122;-61
2022/06/18 09:50:19;;;;;;;10.63;3.90;;;29.70;99.90;;;29.91;46.62;101657.81;5112697;28;20040;-60
2022/06/18 09:52:58;;;;;;;10.35;4.00;;;29.70;99.90;;;30.05;47.61;101660.41;5112926;28;20043;-60
2022/06/18 09:55:40;;;;;;;9.25;4.20;;;29.70;99.90;;;30.21;47.98;101649.22;5112654;28;20088;-61
2022/06/18 09:58:14;;;;;;;8.85;4.72;;;29.80;99.90;;;30.08;48.07;101648.41;5112812;28;20126;-60
2022/06/18 10:00:46;;;;;;;13.05;4.25;;;29.80;99.90;;;30.03;48.64;101662.38;5112512;28;20104;-60
2022/06/18 10:06:52;;;;;;;8.63;4.25;;;29.70;99.90;;;29.95;48.50;101651.13;5112427;28;20074;-61
2022/06/18 10:09:20;;;;;;;11.65;4.10;;;29.60;99.90;;;30.01;47.03;101647.09;5112502;28;20108;-61
2022/06/18 10:11:48;;;;;;;13.48;4.70;;;29.70;99.90;;;29.30;49.70;101635.84;5112320;28;20464;-61
2022/06/18 10:14:22;;;;;;;10.60;4.68;;;29.00;99.90;;;29.33;49.56;101630.16;5112411;28;20496;-61
2022/06/18 10:17:08;;;;;;;12.48;4.57;;;29.00;99.90;;;29.41;49.72;101625.06;5112116;28;20047;-61
2022/06/18 10:19:52;;;;;;;9.32;4.35;;;28.90;99.90;;;29.64;48.80;101631.59;5112887;28;20059;-60
2022/06/18 10:22:33;;;;;;;7.78;3.72;;;29.10;99.90;;;29.59;49.04;101622.88;5112194;28;20484;-60
2022/06/18 10:25:22;;;;;;;7.22;4.00;;;29.10;99.90;;;29.55;49.30;101635.88;5112808;28;20233;-60
2022/06/18 10:28:00;;;;;;;11.90;3.73;;;29.10;99.90;;;28.81;52.04;101630.16;5112557;28;20052;-61
2022/06/18 10:30:40;;;;;;;8.13;3.65;;;28.50;99.90;;;29.23;50.79;101615.44;5111882;28;20112;-60
2022/06/18 10:33:21;;;;;;;5.53;3.37;;;28.70;99.90;;;29.26;51.40;101624.28;5112404;28;20067;-61
2022/06/18 10:35:59;;;;;;;11.10;3.97;;;28.70;99.90;;;29.41;49.26;101608.69;5112442;28;20063;-61
2022/06/18 10:38:53;;;;;;;6.88;4.45;;;28.90;99.90;;;29.62;48.37;101617.19;5112132;28;20039;-60
2022/06/18 10:41:27;;;;;;;8.43;4.15;;;29.20;99.90;;;29.69;49.55;101613.94;5112289;28;20047;-61
2022/06/18 10:44:10;;;;;;;11.27;4.18;;;29.30;99.90;;;29.96;48.86;101611.09;5112470;28;20125;-61
2022/06/18 10:46:42;;;;;;;12.50;4.68;;;29.50;99.90;;;29.07;51.34;101604.72;5112212;28;20123;-60